Mooringsport, Louisiana
Current Conditions -  °F | °C
As of 9:53 PM on Wednesday 28 Jan 2015 (Local Time) from KDTN Reporting Station
Clear Clear  
Wind Chill: 61°   Ceiling: Unl
Heat Index: 61°   Visibility: 10mi
Dew Point: 40°   Wind: 14mph
Humidity: 46%   Direction: 170°S
Pressure: 30.07"   Gusts: NA
Location:  32.69°N, 93.96°W
Report Text: KDTN 290353Z AUTO 17012KT 10SM CLR 16/04 A3007 RMK AO2 SLP180 T01610044 TSNO
Loading
Personal Weather Stations






























Interactive Weather Map New forecast layout! Learn more

10-Day Weather Forecast

Advertisements
Track Severe Weather on mobile